Time;durP1;ratioP1;P1;durP2;ratioP2;P2;SDS_P1;SDS_P2;PMS_P1;PMS_P2;Temp;Humidity;BMP_temperature;BMP_pressure;BME280_temperature;BME280_humidity;BME280_pressure;Samples;Min_cycle;Max_cycle;Signal;HPM_P1;HPM_P2
2022/06/27 00:02:09;;;;;;;0.20;0.20;;;;;;;20.28;63.86;99664.03;4787878;30;20570;-94
2022/06/27 00:04:38;;;;;;;0.20;0.20;;;;;;;20.21;64.16;99660.81;4773455;30;20059;-93
2022/06/27 00:07:05;;;;;;;0.20;0.20;;;;;;;20.14;64.30;99665.84;4777678;30;20059;-95
2022/06/27 00:09:32;;;;;;;0.20;0.20;;;;;;;20.10;64.80;99670.25;4784658;30;20059;-96
2022/06/27 00:12:00;;;;;;;0.15;0.15;;;;;;;20.05;64.65;99673.06;4790724;30;20063;-96
2022/06/27 00:14:29;;;;;;;0.20;0.20;;;;;;;20.01;64.87;99669.28;4792716;30;20059;-96
2022/06/27 00:16:59;;;;;;;0.20;0.20;;;;;;;20.01;65.15;99677.50;4793433;30;20055;-96
2022/06/27 00:19:28;;;;;;;0.20;0.20;;;;;;;19.95;65.27;99673.97;4792681;29;20048;-95
2022/06/27 00:25:38;;;;;;;0.20;0.20;;;;;;;19.89;65.67;99675.97;4792221;29;20035;-91
2022/06/27 00:28:08;;;;;;;0.20;0.20;;;;;;;19.88;65.73;99668.88;4792024;30;20051;-96
2022/06/27 00:30:35;;;;;;;0.20;0.20;;;;;;;19.92;65.69;99675.38;4787894;30;20051;-96
2022/06/27 00:33:02;;;;;;;0.20;0.20;;;;;;;19.92;65.91;99680.84;4789259;30;20043;-96
2022/06/27 00:35:29;;;;;;;0.20;0.20;;;;;;;19.86;66.05;99679.28;4802820;30;20054;-96
2022/06/27 00:37:56;;;;;;;0.20;0.20;;;;;;;19.79;66.43;99673.31;4785395;30;20059;-96
2022/06/27 00:40:23;;;;;;;0.20;0.20;;;;;;;19.74;66.55;99672.56;4785675;30;20062;-96
2022/06/27 00:43:02;;;;;;;0.20;0.20;;;;;;;19.70;66.78;99675.09;4770692;30;20075;-96
2022/06/27 00:45:34;;;;;;;0.20;0.20;;;;;;;19.70;67.00;99673.16;4787274;30;20056;-96
2022/06/27 00:48:19;;;;;;;0.20;0.20;;;;;;;19.65;67.23;99680.56;4775617;30;20051;-96
2022/06/27 00:54:05;;;;;;;0.10;0.10;;;;;;;19.42;67.92;99672.00;4788317;30;20298;-96
2022/06/27 00:56:40;;;;;;;0.20;0.20;;;;;;;19.40;68.12;99668.75;4789422;30;20090;-95
2022/06/27 00:59:13;;;;;;;0.20;0.20;;;;;;;19.51;68.22;99691.34;4835664;24;20099;-96
2022/06/27 01:01:43;;;;;;;0.20;0.20;;;;;;;19.43;68.26;99670.09;4779828;30;20060;-94
2022/06/27 01:04:11;;;;;;;0.20;0.20;;;;;;;19.42;68.15;99663.81;4780440;30;20067;-94
2022/06/27 01:06:42;;;;;;;0.20;0.20;;;;;;;19.40;68.44;99666.00;4782173;30;20062;-94
2022/06/27 01:09:09;;;;;;;0.20;0.20;;;;;;;19.52;68.52;99676.56;4771938;30;20060;-95
2022/06/27 01:11:36;;;;;;;0.20;0.20;;;;;;;19.42;68.65;99669.28;4762147;30;20554;-93
2022/06/27 01:14:06;;;;;;;0.20;0.20;;;;;;;19.38;69.04;99665.47;4781372;29;20050;-94
2022/06/27 01:16:34;;;;;;;0.20;0.20;;;;;;;19.43;68.97;99668.16;4792301;29;20047;-89
2022/06/27 01:19:02;;;;;;;0.20;0.20;;;;;;;19.38;69.03;99662.72;4788609;29;20052;-96
2022/06/27 01:21:55;;;;;;;0.20;0.20;;;;;;;19.58;69.15;99682.81;4774898;30;20142;-95
2022/06/27 01:24:25;;;;;;;0.20;0.20;;;;;;;19.55;69.15;99678.75;4764180;30;20055;-96
2022/06/27 01:26:52;;;;;;;0.20;0.20;;;;;;;19.61;68.84;99687.72;4787555;30;20142;-93
2022/06/27 01:29:20;;;;;;;0.20;0.20;;;;;;;19.60;68.53;99688.84;4770307;30;20048;-93
2022/06/27 01:31:48;;;;;;;0.20;0.20;;;;;;;19.60;68.65;99683.34;4764826;30;20052;-94
2022/06/27 01:34:16;;;;;;;0.20;0.20;;;;;;;19.60;69.01;99680.63;4754409;30;20078;-93
2022/06/27 01:36:46;;;;;;;0.20;0.20;;;;;;;19.64;68.83;99682.47;4753376;30;20052;-96
2022/06/27 01:39:23;;;;;;;0.20;0.20;;;;;;;19.67;68.59;99690.16;4738562;30;20468;-94
2022/06/27 01:41:58;;;;;;;0.20;0.20;;;;;;;19.67;68.66;99681.94;4758865;30;20123;-94
2022/06/27 01:44:29;;;;;;;0.20;0.20;;;;;;;19.66;68.58;99676.72;4745509;30;20120;-94
2022/06/27 01:47:27;;;;;;;0.20;0.20;;;;;;;19.58;68.72;99677.34;4750003;30;20064;-96
2022/06/27 01:50:12;;;;;;;0.20;0.20;;;;;;;19.63;68.66;99678.13;4745895;30;20063;-95
2022/06/27 01:52:43;;;;;;;0.20;0.20;;;;;;;19.65;68.53;99678.66;4741644;30;20056;-92
2022/06/27 01:55:11;;;;;;;0.20;0.20;;;;;;;19.65;68.50;99672.34;4741816;30;20055;-95
2022/06/27 01:57:43;;;;;;;0.20;0.20;;;;;;;19.66;68.47;99679.47;4773668;30;20079;-96
2022/06/27 02:00:12;;;;;;;0.20;0.20;;;;;;;19.74;68.29;99683.53;4774759;30;20068;-95
2022/06/27 02:03:00;;;;;;;0.20;0.20;;;;;;;19.71;68.60;99673.97;4781631;30;20071;-95
2022/06/27 02:05:34;;;;;;;0.20;0.20;;;;;;;19.74;68.76;99673.38;4789475;29;20090;-95
2022/06/27 02:08:02;;;;;;;0.20;0.20;;;;;;;19.81;68.83;99670.31;4799809;30;20055;-94
2022/06/27 02:10:30;;;;;;;0.20;0.20;;;;;;;19.88;68.54;99685.28;4774232;30;20055;-95
2022/06/27 02:12:57;;;;;;;0.20;0.20;;;;;;;19.97;68.36;99674.50;4776875;30;20056;-94
2022/06/27 02:15:25;;;;;;;0.20;0.20;;;;;;;20.00;68.37;99670.38;4762545;30;20067;-96
2022/06/27 02:17:52;;;;;;;0.20;0.20;;;;;;;20.01;68.44;99674.75;4766504;30;20055;-95
2022/06/27 02:20:21;;;;;;;0.20;0.20;;;;;;;20.10;68.43;99676.56;4785403;30;20051;-96
2022/06/27 02:23:02;;;;;;;0.20;0.20;;;;;;;20.19;68.23;99682.22;4772655;30;20086;-96
2022/06/27 02:25:29;;;;;;;0.20;0.20;;;;;;;20.24;68.10;99678.59;4772254;29;20119;-95
2022/06/27 02:27:59;;;;;;;0.20;0.20;;;;;;;20.28;67.83;99682.38;4788744;29;20095;-96
2022/06/27 02:30:27;;;;;;;0.20;0.20;;;;;;;20.33;67.91;99674.94;4788169;29;20111;-96
2022/06/27 02:32:54;;;;;;;0.20;0.20;;;;;;;20.40;68.09;99674.56;4771417;30;20051;-95
2022/06/27 02:35:22;;;;;;;0.20;0.20;;;;;;;20.42;67.59;99666.06;4764699;30;20062;-95
2022/06/27 02:37:51;;;;;;;0.20;0.20;;;;;;;20.43;67.42;99673.16;4763682;30;20101;-95
2022/06/27 02:40:22;;;;;;;0.20;0.20;;;;;;;20.54;67.46;99680.16;4797459;30;20089;-94
2022/06/27 02:42:54;;;;;;;0.20;0.20;;;;;;;20.63;67.04;99670.19;4756234;30;20060;-95
2022/06/27 02:45:50;;;;;;;0.20;0.20;;;;;;;20.73;66.93;99669.22;4791029;29;20166;-94
2022/06/27 02:48:36;;;;;;;0.20;0.20;;;;;;;20.82;66.67;99669.41;4786430;30;20094;-94
2022/06/27 02:51:09;;;;;;;0.20;0.20;;;;;;;20.92;66.62;99685.72;4805499;29;20055;-95
2022/06/27 02:53:42;;;;;;;;;;;;;;;20.98;66.28;99676.28;4841564;24;20047;-96
2022/06/27 02:56:27;;;;;;;0.20;0.20;;;;;;;20.98;66.47;99666.09;4795244;29;19934;-83
2022/06/27 03:05:08;;;;;;;0.20;0.20;;;;;;;21.17;65.87;99662.56;4774651;30;20060;-89
2022/06/27 03:07:45;;;;;;;0.20;0.20;;;;;;;21.32;65.51;99662.31;4791916;29;20081;-96
2022/06/27 03:10:57;;;;;;;0.20;0.20;;;;;;;21.51;65.46;99664.22;4740929;30;20061;-94
2022/06/27 03:13:48;;;;;;;0.20;0.20;;;;;;;21.56;65.19;99651.19;4726891;30;20045;-94
2022/06/27 03:16:32;;;;;;;0.20;0.20;;;;;;;21.80;64.98;99672.19;4725172;30;20076;-93
2022/06/27 03:19:50;;;;;;;0.20;0.20;;;;;;;21.84;65.16;99673.22;4871500;24;20067;-95
2022/06/27 03:22:33;;;;;;;0.20;0.20;;;;;;;22.02;64.78;99680.56;4808481;29;20449;-95
2022/06/27 03:25:04;;;;;;;0.20;0.20;;;;;;;22.15;64.61;99667.94;4788627;30;20047;-95
2022/06/27 03:27:32;;;;;;;0.20;0.20;;;;;;;22.23;64.74;99674.69;4796346;30;20116;-94
2022/06/27 03:30:00;;;;;;;0.20;0.20;;;;;;;22.25;64.84;99662.28;4785300;30;20058;-95
2022/06/27 03:32:31;;;;;;;0.20;0.20;;;;;;;22.34;64.51;99672.59;4775324;29;20073;-91
2022/06/27 03:35:03;;;;;;;0.20;0.20;;;;;;;22.43;64.48;99682.56;4807368;30;20032;-96
2022/06/27 03:37:31;;;;;;;0.20;0.20;;;;;;;22.49;64.52;99673.06;4781495;30;20523;-93
2022/06/27 03:39:59;;;;;;;0.20;0.20;;;;;;;22.61;64.22;99671.72;4782114;30;20063;-93
2022/06/27 03:42:29;;;;;;;0.20;0.20;;;;;;;22.71;63.84;99672.34;4780080;30;20064;-91
2022/06/27 03:44:56;;;;;;;0.20;0.20;;;;;;;22.80;63.70;99677.91;4780465;30;20074;-95
2022/06/27 03:47:24;;;;;;;0.20;0.20;;;;;;;22.89;63.52;99676.06;4788479;29;20074;-86
2022/06/27 03:56:45;;;;;;;0.20;0.20;;;;;;;23.09;62.63;99654.69;4984624;24;20043;-95
2022/06/27 03:59:14;;;;;;;0.20;0.20;;;;;;;23.21;62.40;99660.47;4801957;29;20494;-92
2022/06/27 04:12:41;;;;;;;0.20;0.20;;;;;;;23.78;59.76;99662.66;4851051;24;10001696;-94
2022/06/27 04:15:28;;;;;;;0.20;0.20;;;;;;;23.91;59.46;99666.44;4787362;30;20068;-96
2022/06/27 04:18:19;;;;;;;0.20;0.20;;;;;;;23.98;58.55;99664.84;4780137;30;20055;-94
2022/06/27 04:21:15;;;;;;;0.20;0.20;;;;;;;24.13;57.99;99652.56;4792291;30;20124;-94
2022/06/27 04:24:02;;;;;;;0.20;0.20;;;;;;;24.35;57.89;99664.63;4797389;29;20061;-95
2022/06/27 04:26:36;;;;;;;0.20;0.20;;;;;;;24.51;57.29;99656.75;4802909;29;20035;-93
2022/06/27 04:29:37;;;;;;;0.20;0.20;;;;;;;24.69;56.76;99663.94;4779879;30;20032;-95
2022/06/27 04:32:04;;;;;;;0.10;0.10;;;;;;;24.74;56.21;99665.72;4790168;29;20071;-94
2022/06/27 04:34:32;;;;;;;0.20;0.20;;;;;;;24.85;56.03;99667.84;4780032;29;20055;-93
2022/06/27 04:36:59;;;;;;;0.20;0.20;;;;;;;24.93;55.75;99657.94;4814010;24;20067;-90
2022/06/27 04:39:31;;;;;;;0.20;0.20;;;;;;;25.04;55.70;99666.69;4762402;30;20052;-91
2022/06/27 04:42:36;;;;;;;0.10;0.10;;;;;;;25.15;55.63;99656.97;4788874;30;20364;-94
2022/06/27 04:45:06;;;;;;;0.20;0.20;;;;;;;25.20;55.25;99661.56;4801376;29;20077;-95
2022/06/27 04:47:36;;;;;;;0.20;0.20;;;;;;;25.25;55.53;99647.56;4789797;29;20044;-91
2022/06/27 04:50:11;;;;;;;0.20;0.20;;;;;;;25.38;54.62;99656.81;4772929;29;20099;-93
2022/06/27 04:52:39;;;;;;;0.20;0.20;;;;;;;25.42;54.52;99652.25;4773518;30;20055;-94
2022/06/27 04:55:08;;;;;;;0.20;0.20;;;;;;;25.50;54.35;99649.47;4781026;29;20063;-93
2022/06/27 04:57:36;;;;;;;0.20;0.20;;;;;;;25.57;54.25;99646.19;4781446;30;20063;-96
2022/06/27 05:00:09;;;;;;;0.10;0.10;;;;;;;25.67;53.80;99650.56;4761996;30;20424;-95
2022/06/27 05:02:57;;;;;;;0.15;0.15;;;;;;;25.73;53.94;99639.00;4851115;24;20067;-95
2022/06/27 05:05:29;;;;;;;0.10;0.10;;;;;;;25.73;53.35;99636.25;4757088;30;20048;-94
2022/06/27 05:08:17;;;;;;;0.20;0.20;;;;;;;25.93;53.34;99643.03;4741768;30;20072;-93
2022/06/27 05:10:56;;;;;;;;;;;;;;;26.04;53.08;99642.66;4773889;30;20082;-96
2022/06/27 05:13:25;;;;;;;0.13;0.13;;;;;;;26.05;52.59;99639.53;4771297;30;19934;-95
2022/06/27 05:15:54;;;;;;;0.10;0.10;;;;;;;26.24;52.68;99644.66;4724616;30;20079;-94
2022/06/27 05:18:22;;;;;;;0.10;0.10;;;;;;;26.30;52.01;99635.03;4745757;30;20524;-96
2022/06/27 05:21:08;;;;;;;0.10;0.10;;;;;;;26.42;52.30;99639.84;4763010;30;20059;-95
2022/06/27 05:23:41;;;;;;;0.20;0.20;;;;;;;26.54;51.55;99636.41;4847353;24;20072;-96
2022/06/27 05:26:16;;;;;;;0.20;0.20;;;;;;;26.64;50.81;99629.63;4730148;30;20093;-96
2022/06/27 05:32:06;;;;;;;0.10;0.10;;;;;;;26.63;50.06;99620.50;4787429;29;20062;-90
2022/06/27 05:34:37;;;;;;;0.20;0.20;;;;;;;26.70;50.75;99631.06;4775824;30;20051;-96
2022/06/27 05:37:08;;;;;;;0.10;0.10;;;;;;;26.72;50.53;99621.28;4782363;30;20036;-96
2022/06/27 05:42:39;;;;;;;0.10;0.10;;;;;;;26.94;49.08;99633.13;4911314;24;20040;-85
2022/06/27 05:45:34;;;;;;;0.10;0.10;;;;;;;27.08;49.12;99625.38;4773260;30;20083;-95
2022/06/27 05:52:02;;;;;;;0.10;0.10;;;;;;;27.29;49.71;99619.00;3142343;27;20055;-91
2022/06/27 05:54:29;;;;;;;0.20;0.20;;;;;;;27.43;50.53;99612.00;4865194;24;20036;-96
2022/06/27 05:56:58;;;;;;;0.20;0.20;;;;;;;27.61;50.66;99612.63;4767086;30;20056;-94
2022/06/27 05:59:25;;;;;;;0.10;0.10;;;;;;;27.70;50.04;99611.69;4759779;29;20052;-90
2022/06/27 06:02:00;;;;;;;0.10;0.10;;;;;;;27.85;49.13;99599.97;4757310;30;20056;-95
2022/06/27 06:04:34;;;;;;;0.10;0.10;;;;;;;27.90;49.09;99599.72;4737182;30;20056;-93
2022/06/27 06:07:04;;;;;;;0.10;0.10;;;;;;;28.08;50.31;99622.50;4742932;30;20079;-93
2022/06/27 06:09:52;;;;;;;0.15;0.15;;;;;;;28.01;49.04;99609.22;4740875;30;20052;-93
2022/06/27 06:13:09;;;;;;;0.10;0.10;;;;;;;28.08;49.66;99603.91;4778701;30;20094;-94
2022/06/27 06:15:40;;;;;;;0.10;0.10;;;;;;;28.13;49.56;99607.59;4733146;30;20036;-94
2022/06/27 06:18:10;;;;;;;0.10;0.10;;;;;;;28.27;48.22;99605.28;4776946;30;20111;-93
2022/06/27 06:20:46;;;;;;;0.20;0.20;;;;;;;28.20;48.03;99596.72;4738388;30;20052;-94
2022/06/27 06:23:13;;;;;;;;;;;;;;;28.31;47.82;99615.34;4748721;30;20109;-94
2022/06/27 06:25:41;;;;;;;0.20;0.20;;;;;;;28.21;48.26;99598.34;4762484;30;19930;-95
2022/06/27 06:28:09;;;;;;;0.17;0.17;;;;;;;28.36;47.99;99608.75;4782016;30;20071;-94
2022/06/27 06:30:37;;;;;;;0.10;0.10;;;;;;;28.37;47.84;99593.69;4769084;30;20052;-95
2022/06/27 06:33:08;;;;;;;0.10;0.10;;;;;;;28.47;47.86;99604.34;4770172;30;20060;-94
2022/06/27 06:35:37;;;;;;;0.13;0.13;;;;;;;28.72;47.66;99618.19;4772583;30;20035;-96
2022/06/27 06:38:11;;;;;;;0.10;0.10;;;;;;;28.97;45.91;99602.25;4752353;30;20071;-93
2022/06/27 06:40:41;;;;;;;0.10;0.10;;;;;;;29.16;45.15;99607.16;4788454;29;20048;-96
2022/06/27 06:43:13;;;;;;;0.10;0.10;;;;;;;29.07;45.14;99592.63;4768416;30;20052;-91
2022/06/27 06:45:44;;;;;;;0.10;0.10;;;;;;;29.04;44.71;99598.84;4770093;29;20048;-94
2022/06/27 06:48:19;;;;;;;0.10;0.10;;;;;;;29.22;44.27;99596.59;4764526;29;20052;-92
2022/06/27 06:50:47;;;;;;;0.20;0.20;;;;;;;29.31;44.18;99600.81;4920483;24;20052;-88
2022/06/27 06:53:15;;;;;;;0.10;0.10;;;;;;;29.34;44.38;99591.78;4756551;30;20086;-92
2022/06/27 06:55:42;;;;;;;0.15;0.15;;;;;;;29.39;43.68;99605.41;4765806;30;20116;-93
2022/06/27 06:58:09;;;;;;;0.10;0.10;;;;;;;29.42;43.61;99606.66;4773021;29;20055;-95
2022/06/27 07:00:38;;;;;;;0.10;0.10;;;;;;;29.54;43.53;99601.03;4770185;30;20056;-95
2022/06/27 07:03:31;;;;;;;0.10;0.10;;;;;;;29.57;42.97;99607.84;4772208;30;20052;-96
2022/06/27 07:05:59;;;;;;;0.10;0.10;;;;;;;29.41;42.30;99593.13;4822907;24;20056;-93
2022/06/27 07:08:26;;;;;;;0.10;0.10;;;;;;;29.45;42.53;99607.91;4767576;30;20064;-93
2022/06/27 07:10:53;;;;;;;0.10;0.10;;;;;;;29.66;42.25;99608.53;4770680;30;20056;-94
2022/06/27 07:13:23;;;;;;;0.10;0.10;;;;;;;29.62;41.83;99582.56;4804317;24;20085;-95
2022/06/27 07:15:53;;;;;;;0.10;0.10;;;;;;;29.67;42.13;99599.00;4771421;29;20078;-95
2022/06/27 07:18:25;;;;;;;0.10;0.10;;;;;;;29.76;42.16;99596.88;4772869;29;20066;-95
2022/06/27 07:20:52;;;;;;;0.10;0.10;;;;;;;29.72;41.75;99572.91;4773485;30;20291;-95
2022/06/27 07:23:21;;;;;;;0.10;0.10;;;;;;;29.73;40.66;99586.47;4772329;30;20078;-94
2022/06/27 07:28:59;;;;;;;0.10;0.10;;;;;;;30.42;40.09;99611.19;4792954;29;20063;-92
2022/06/27 07:35:13;;;;;;;0.10;0.10;;;;;;;30.30;40.24;99594.59;4785082;29;20060;-96
2022/06/27 07:37:47;;;;;;;0.10;0.10;;;;;;;30.35;40.31;99605.44;4799176;24;20052;-96
2022/06/27 07:40:20;;;;;;;0.10;0.10;;;;;;;30.64;39.68;99599.34;4774890;29;20091;-94
2022/06/27 07:42:52;;;;;;;;;;;;;;;30.91;39.02;99598.72;4772351;30;20040;-95
2022/06/27 07:45:24;;;;;;;0.10;0.10;;;;;;;31.02;38.87;99594.97;4759913;30;19931;-93
2022/06/27 07:47:54;;;;;;;0.10;0.10;;;;;;;31.20;38.24;99595.31;4761959;30;20056;-90
2022/06/27 07:50:36;;;;;;;0.20;0.20;;;;;;;31.19;38.04;99587.31;4782569;30;20059;-95
2022/06/27 07:53:11;;;;;;;0.20;0.20;;;;;;;31.36;37.81;99595.22;4745630;30;20081;-93
2022/06/27 07:55:45;;;;;;;0.10;0.10;;;;;;;31.72;36.65;99588.28;4748438;30;20057;-95
2022/06/27 07:58:26;;;;;;;0.10;0.10;;;;;;;31.49;37.08;99596.66;4773330;30;20056;-92
2022/06/27 08:01:02;;;;;;;0.20;0.20;;;;;;;31.72;36.38;99598.66;4728989;30;20051;-90
2022/06/27 08:03:36;;;;;;;0.20;0.20;;;;;;;32.12;36.14;99594.56;4753647;30;20090;-90
2022/06/27 08:06:16;;;;;;;0.20;0.20;;;;;;;32.46;35.81;99592.66;4744409;30;20056;-92
2022/06/27 08:08:55;;;;;;;0.20;0.20;;;;;;;32.10;36.91;99594.13;4739577;30;20147;-93
2022/06/27 08:11:24;;;;;;;0.10;0.10;;;;;;;31.92;37.10;99597.41;4746823;30;20556;-91
2022/06/27 08:13:53;;;;;;;0.20;0.20;;;;;;;31.68;37.80;99598.59;4758145;30;20691;-92
2022/06/27 08:16:22;;;;;;;0.20;0.20;;;;;;;31.97;37.04;99587.13;4759488;30;20063;-95
2022/06/27 08:18:51;;;;;;;0.20;0.20;;;;;;;32.21;37.04;99571.94;4796046;24;20064;-93
2022/06/27 08:21:27;;;;;;;0.20;0.20;;;;;;;32.63;35.61;99574.53;4747367;30;20060;-92
2022/06/27 08:23:59;;;;;;;0.20;0.20;;;;;;;32.43;36.28;99573.84;4814356;24;20064;-94
2022/06/27 08:26:27;;;;;;;0.10;0.10;;;;;;;32.92;35.19;99577.72;4784758;30;20056;-90
2022/06/27 08:28:56;;;;;;;0.10;0.10;;;;;;;32.51;35.59;99572.81;4779735;30;20543;-94
2022/06/27 08:31:26;;;;;;;0.10;0.10;;;;;;;31.92;36.99;99586.22;4791374;29;20086;-96
2022/06/27 08:34:03;;;;;;;0.20;0.20;;;;;;;32.54;37.06;99577.63;4769710;30;20048;-93
2022/06/27 08:36:33;;;;;;;0.10;0.10;;;;;;;33.39;35.21;99576.22;4777988;30;20056;-93
2022/06/27 08:43:01;;;;;;;0.20;0.20;;;;;;;34.11;33.03;99580.50;4774766;30;20119;-91
2022/06/27 08:45:28;;;;;;;0.20;0.20;;;;;;;33.90;33.57;99561.50;4847860;24;20104;-95
2022/06/27 08:48:06;;;;;;;0.20;0.20;;;;;;;34.15;33.34;99563.69;4750585;30;20072;-95
2022/06/27 08:50:55;;;;;;;0.20;0.20;;;;;;;34.55;32.44;99567.53;4748663;30;20067;-95
2022/06/27 08:53:56;;;;;;;0.20;0.20;;;;;;;34.51;32.68;99556.28;4753959;30;20080;-93
2022/06/27 08:56:29;;;;;;;0.20;0.20;;;;;;;34.34;33.01;99540.22;4752466;30;20134;-95
2022/06/27 08:58:59;;;;;;;0.20;0.20;;;;;;;34.39;33.06;99551.03;4749096;30;20052;-94
2022/06/27 09:01:27;;;;;;;0.20;0.20;;;;;;;34.34;32.98;99554.22;4751396;30;20040;-95
2022/06/27 09:04:01;;;;;;;0.20;0.20;;;;;;;34.51;32.82;99557.13;4743426;30;20052;-93
2022/06/27 09:06:33;;;;;;;0.20;0.20;;;;;;;34.58;32.73;99559.16;4751216;30;20127;-94
2022/06/27 09:09:05;;;;;;;0.20;0.20;;;;;;;35.00;32.19;99554.91;4750197;30;20072;-94
2022/06/27 09:11:38;;;;;;;0.20;0.20;;;;;;;35.31;31.17;99550.59;4739163;30;20057;-94
2022/06/27 09:14:08;;;;;;;0.20;0.20;;;;;;;35.74;30.38;99553.44;4752623;30;20213;-96
2022/06/27 09:16:41;;;;;;;0.28;0.28;;;;;;;35.57;29.45;99532.56;4719775;30;20044;-94
2022/06/27 09:19:23;;;;;;;0.20;0.20;;;;;;;35.66;29.55;99557.47;4720611;30;20066;-96
2022/06/27 09:22:26;;;;;;;0.20;0.20;;;;;;;35.64;30.37;99551.44;4735461;30;20061;-95
2022/06/27 09:25:04;;;;;;;0.20;0.20;;;;;;;36.01;29.61;99530.56;4750311;30;20079;-96
2022/06/27 09:27:50;;;;;;;0.00;0.00;;;;;;;34.76;31.59;99538.81;4752140;30;20119;-96
2022/06/27 09:30:19;;;;;;;0.20;0.20;;;;;;;34.73;32.36;99546.00;4752766;30;20417;-96
2022/06/27 09:32:49;;;;;;;0.10;0.10;;;;;;;35.25;31.11;99538.16;4755814;30;20091;-95
2022/06/27 09:35:27;;;;;;;0.10;0.10;;;;;;;34.37;32.69;99547.81;4761989;30;20051;-96
2022/06/27 09:38:16;;;;;;;0.10;0.10;;;;;;;33.38;34.23;99546.66;4730407;30;20056;-94
2022/06/27 09:41:50;;;;;;;0.20;0.20;;;;;;;33.95;33.48;99547.13;4743498;30;20060;-93
2022/06/27 09:44:21;;;;;;;0.00;0.00;;;;;;;34.07;32.39;99552.44;4747731;30;20060;-94
2022/06/27 09:47:08;;;;;;;0.20;0.20;;;;;;;33.87;32.94;99532.28;4761131;30;20555;-94
2022/06/27 09:49:38;;;;;;;0.20;0.20;;;;;;;34.72;31.32;99525.59;4761530;30;20059;-93
2022/06/27 09:52:09;;;;;;;0.25;0.25;;;;;;;35.66;29.84;99526.59;4732982;30;20069;-94
2022/06/27 09:54:42;;;;;;;0.22;0.22;;;;;;;36.07;29.38;99522.50;4734833;30;20147;-94
2022/06/27 09:57:36;;;;;;;0.30;0.30;;;;;;;35.93;29.55;99510.13;4735245;30;20063;-95
2022/06/27 10:00:09;;;;;;;0.30;0.30;;;;;;;35.87;30.17;99513.72;4734311;30;20056;-96
2022/06/27 10:02:51;;;;;;;0.20;0.20;;;;;;;36.52;29.42;99515.16;4734168;30;20076;-94
2022/06/27 10:05:31;;;;;;;0.30;0.30;;;;;;;37.17;27.68;99501.59;4760347;30;20056;-94
2022/06/27 10:08:02;;;;;;;0.22;0.22;;;;;;;37.95;26.82;99514.19;4759873;30;20417;-95
2022/06/27 10:10:30;;;;;;;0.30;0.30;;;;;;;37.67;26.52;99501.19;4759291;30;20119;-94
2022/06/27 10:13:04;;;;;;;0.30;0.30;;;;;;;37.35;26.94;99507.09;4763821;30;20070;-95
2022/06/27 10:15:40;;;;;;;0.20;0.20;;;;;;;36.47;28.17;99503.56;4752213;30;20056;-94
2022/06/27 10:18:35;;;;;;;0.00;0.00;;;;;;;35.71;29.77;99520.56;4739471;30;20048;-96
2022/06/27 10:22:10;;;;;;;0.30;0.30;;;;;;;35.22;29.52;99524.91;4766563;30;20032;-88
2022/06/27 10:24:46;;;;;;;0.30;0.30;;;;;;;36.52;27.74;99515.16;4771361;30;20063;-95
2022/06/27 10:27:29;;;;;;;0.30;0.30;;;;;;;37.72;26.76;99509.19;4774490;29;20063;-94
2022/06/27 10:30:35;;;;;;;0.30;0.30;;;;;;;37.51;26.50;99501.75;4769477;30;20055;-93
2022/06/27 10:33:28;;;;;;;0.30;0.30;;;;;;;35.84;28.80;99515.31;4771770;30;20091;-94
2022/06/27 10:35:55;;;;;;;0.30;0.30;;;;;;;36.44;27.81;99520.00;4768874;29;20063;-95
2022/06/27 10:38:38;;;;;;;0.30;0.30;;;;;;;36.50;27.61;99513.97;4766105;30;20060;-96
2022/06/27 10:41:09;;;;;;;0.30;0.30;;;;;;;36.90;26.72;99492.13;4766144;30;20052;-94
2022/06/27 10:43:40;;;;;;;0.30;0.30;;;;;;;37.28;26.31;99507.94;4764637;30;20066;-94
2022/06/27 10:46:10;;;;;;;0.30;0.30;;;;;;;37.73;25.68;99512.81;4761290;30;20063;-94
2022/06/27 10:48:46;;;;;;;0.30;0.30;;;;;;;38.31;25.66;99504.56;4759796;30;20064;-91
2022/06/27 10:51:31;;;;;;;0.30;0.30;;;;;;;39.28;24.87;99511.75;4735872;30;20059;-93
2022/06/27 10:53:58;;;;;;;0.30;0.30;;;;;;;39.10;24.10;99498.72;4740649;30;20510;-92
2022/06/27 10:56:28;;;;;;;0.30;0.30;;;;;;;38.26;24.84;99508.66;4751599;30;20060;-91
2022/06/27 10:59:03;;;;;;;0.30;0.30;;;;;;;38.49;24.13;99498.72;4757176;30;20072;-93
2022/06/27 11:01:31;;;;;;;0.35;0.35;;;;;;;38.41;24.52;99495.16;4758805;30;20048;-93
2022/06/27 11:03:59;;;;;;;0.40;0.40;;;;;;;38.89;24.34;99504.63;4757999;30;20087;-93
2022/06/27 11:06:27;;;;;;;0.40;0.40;;;;;;;38.98;23.86;99496.47;4761579;30;20048;-94
2022/06/27 11:08:55;;;;;;;0.20;0.20;;;;;;;38.66;24.49;99485.63;4739593;30;20060;-92
2022/06/27 11:11:25;;;;;;;0.10;0.10;;;;;;;36.64;27.20;99492.25;4757658;30;20059;-93
2022/06/27 11:14:00;;;;;;;0.40;0.40;;;;;;;36.23;28.00;99478.75;4759122;30;20056;-91
2022/06/27 11:16:29;;;;;;;0.17;0.17;;;;;;;36.38;27.82;99499.16;4757564;30;20063;-93
2022/06/27 11:20:04;;;;;;;0.10;0.10;;;;;;;35.22;29.98;99480.03;4759969;30;20064;-93
2022/06/27 11:22:21;;;;;;;0.30;0.30;;;;;;;36.41;27.90;99483.47;4746280;30;20056;-93
2022/06/27 11:24:49;;;;;;;0.30;0.30;;;;;;;37.44;26.68;99484.88;4754903;30;20064;-94
2022/06/27 11:27:16;;;;;;;0.30;0.30;;;;;;;37.90;25.82;99486.47;4765305;30;20064;-94
2022/06/27 11:32:34;;;;;;;0.30;0.30;;;;;;;38.34;23.75;99476.34;4745170;30;20083;-95
2022/06/27 11:35:05;;;;;;;0.40;0.40;;;;;;;38.69;24.04;99491.22;4749574;30;20171;-89
2022/06/27 11:37:33;;;;;;;0.30;0.30;;;;;;;38.23;24.37;99472.06;4727899;30;20525;-94
2022/06/27 11:40:06;;;;;;;0.30;0.30;;;;;;;38.54;23.98;99470.06;4745756;30;20062;-92
2022/06/27 11:42:41;;;;;;;0.40;0.40;;;;;;;39.08;24.10;99469.31;4771080;30;20075;-93
2022/06/27 11:45:22;;;;;;;0.40;0.40;;;;;;;39.08;24.40;99466.50;4743203;30;20052;-93
2022/06/27 11:47:49;;;;;;;0.30;0.30;;;;;;;38.77;24.25;99472.97;4744553;30;20087;-92
2022/06/27 11:50:18;;;;;;;0.40;0.40;;;;;;;39.24;24.20;99469.44;4743241;30;20049;-95
2022/06/27 11:53:10;;;;;;;0.40;0.40;;;;;;;40.01;23.18;99464.88;4752184;30;20525;-96
2022/06/27 11:55:38;;;;;;;0.40;0.40;;;;;;;39.70;23.18;99464.25;4749790;30;20052;-94
2022/06/27 11:58:05;;;;;;;0.40;0.40;;;;;;;39.51;23.35;99477.91;4766283;30;20082;-94
2022/06/27 12:00:34;;;;;;;0.30;0.30;;;;;;;40.23;23.50;99465.28;4768393;30;20080;-95
2022/06/27 12:03:27;;;;;;;0.40;0.40;;;;;;;41.12;21.99;99468.19;4760888;30;20086;-94
2022/06/27 12:05:54;;;;;;;0.30;0.30;;;;;;;40.56;22.24;99456.91;4758980;30;20044;-95
2022/06/27 12:08:22;;;;;;;0.40;0.40;;;;;;;40.50;22.78;99450.97;4762502;30;20048;-94
2022/06/27 12:13:42;;;;;;;0.40;0.40;;;;;;;41.66;21.87;99449.84;4751556;30;20064;-94
2022/06/27 12:16:12;;;;;;;0.40;0.40;;;;;;;41.60;21.00;99438.25;4745286;30;20056;-93
2022/06/27 12:18:42;;;;;;;0.55;0.55;;;;;;;41.71;20.97;99441.59;4743885;30;20084;-95
2022/06/27 12:21:22;;;;;;;0.50;0.50;;;;;;;42.18;21.03;99431.78;4742693;30;20172;-93
2022/06/27 12:24:05;;;;;;;0.60;0.60;;;;;;;42.54;20.80;99444.91;4749306;30;20052;-95
2022/06/27 12:26:34;;;;;;;0.40;0.40;;;;;;;42.77;20.34;99435.28;4715911;30;20060;-92
2022/06/27 12:29:05;;;;;;;0.45;0.45;;;;;;;42.79;20.76;99449.84;4732232;30;20117;-94
2022/06/27 12:31:34;;;;;;;0.50;0.50;;;;;;;42.21;21.49;99428.03;4744265;30;20521;-94
2022/06/27 12:34:03;;;;;;;0.00;0.00;;;;;;;40.14;23.17;99442.44;4727558;30;20080;-93
2022/06/27 12:36:34;;;;;;;0.50;0.50;;;;;;;38.59;24.42;99447.84;4739300;30;20052;-93
2022/06/27 12:39:09;;;;;;;0.40;0.40;;;;;;;40.13;23.13;99443.66;4765527;30;20060;-93
2022/06/27 12:41:39;;;;;;;0.40;0.40;;;;;;;40.97;21.45;99424.44;4713297;30;20053;-92
2022/06/27 12:44:06;;;;;;;0.40;0.40;;;;;;;40.39;22.58;99437.09;4763007;30;20060;-93
2022/06/27 12:46:34;;;;;;;0.40;0.40;;;;;;;40.83;22.00;99440.53;4757746;30;20071;-92
2022/06/27 12:49:24;;;;;;;0.35;0.35;;;;;;;42.38;20.71;99445.81;4776996;30;20056;-93
2022/06/27 12:51:51;;;;;;;0.60;0.60;;;;;;;42.44;20.49;99441.19;4761849;30;20068;-95
2022/06/27 12:54:25;;;;;;;0.50;0.50;;;;;;;43.15;20.30;99443.78;4752764;30;20501;-93
2022/06/27 12:56:55;;;;;;;0.80;0.80;;;;;;;44.66;18.56;99450.53;4758435;30;20056;-92
2022/06/27 12:59:24;;;;;;;0.50;0.50;;;;;;;44.74;18.57;99446.13;4758051;30;20095;-94
2022/06/27 13:01:52;;;;;;;0.20;0.20;;;;;;;44.41;18.89;99433.66;4756794;30;20071;-92
2022/06/27 13:04:19;;;;;;;0.90;0.90;;;;;;;42.93;19.67;99440.06;4710217;30;20055;-95
2022/06/27 13:07:01;;;;;;;0.70;0.70;;;;;;;42.51;20.07;99440.94;4740010;30;20055;-95